sensor_id;sensor_type;location;lat;lon;timestamp;P1;durP1;ratioP1;P2;durP2;ratioP2
12118;SDS011;6123;48.864;9.200;2024-03-02T00:00:08;11.13;;;10.13;;
12118;SDS011;6123;48.864;9.200;2024-03-02T00:02:41;11.43;;;10.43;;
12118;SDS011;6123;48.864;9.200;2024-03-02T00:05:07;11.38;;;10.35;;
12118;SDS011;6123;48.864;9.200;2024-03-02T00:07:35;12.05;;;10.85;;
12118;SDS011;6123;48.864;9.200;2024-03-02T00:10:01;12.25;;;11.15;;
12118;SDS011;6123;48.864;9.200;2024-03-02T00:12:33;11.80;;;10.68;;
12118;SDS011;6123;48.864;9.200;2024-03-02T00:14:59;11.77;;;10.68;;
12118;SDS011;6123;48.864;9.200;2024-03-02T00:17:27;11.85;;;10.75;;
12118;SDS011;6123;48.864;9.200;2024-03-02T00:19:54;11.48;;;10.40;;
12118;SDS011;6123;48.864;9.200;2024-03-02T00:22:20;11.73;;;10.52;;
12118;SDS011;6123;48.864;9.200;2024-03-02T00:24:45;11.80;;;10.70;;
12118;SDS011;6123;48.864;9.200;2024-03-02T00:27:12;10.80;;;9.82;;
12118;SDS011;6123;48.864;9.200;2024-03-02T00:29:40;12.05;;;10.95;;
12118;SDS011;6123;48.864;9.200;2024-03-02T00:32:10;11.35;;;10.20;;
12118;SDS011;6123;48.864;9.200;2024-03-02T00:34:38;12.32;;;11.13;;
12118;SDS011;6123;48.864;9.200;2024-03-02T00:37:04;11.10;;;10.05;;
12118;SDS011;6123;48.864;9.200;2024-03-02T00:39:30;11.55;;;10.40;;
12118;SDS011;6123;48.864;9.200;2024-03-02T00:41:55;10.93;;;9.93;;
12118;SDS011;6123;48.864;9.200;2024-03-02T00:44:21;12.80;;;9.88;;
12118;SDS011;6123;48.864;9.200;2024-03-02T00:46:51;10.80;;;9.80;;
12118;SDS011;6123;48.864;9.200;2024-03-02T00:49:21;11.90;;;10.80;;
12118;SDS011;6123;48.864;9.200;2024-03-02T00:51:48;11.40;;;10.40;;
12118;SDS011;6123;48.864;9.200;2024-03-02T00:54:15;11.75;;;10.65;;
12118;SDS011;6123;48.864;9.200;2024-03-02T00:56:51;11.27;;;10.27;;
12118;SDS011;6123;48.864;9.200;2024-03-02T00:59:17;11.35;;;10.35;;
12118;SDS011;6123;48.864;9.200;2024-03-02T01:01:43;11.90;;;10.65;;
12118;SDS011;6123;48.864;9.200;2024-03-02T01:04:09;11.55;;;10.40;;
12118;SDS011;6123;48.864;9.200;2024-03-02T01:06:34;11.15;;;10.00;;
12118;SDS011;6123;48.864;9.200;2024-03-02T01:09:01;10.45;;;9.40;;
12118;SDS011;6123;48.864;9.200;2024-03-02T01:11:27;10.68;;;9.70;;
12118;SDS011;6123;48.864;9.200;2024-03-02T01:13:53;11.55;;;10.45;;
12118;SDS011;6123;48.864;9.200;2024-03-02T01:16:18;11.43;;;10.32;;
12118;SDS011;6123;48.864;9.200;2024-03-02T01:18:44;11.38;;;10.35;;
12118;SDS011;6123;48.864;9.200;2024-03-02T01:21:10;11.60;;;10.32;;
12118;SDS011;6123;48.864;9.200;2024-03-02T01:23:35;10.88;;;9.88;;
12118;SDS011;6123;48.864;9.200;2024-03-02T01:26:01;12.05;;;10.85;;
12118;SDS011;6123;48.864;9.200;2024-03-02T01:28:26;10.40;;;9.40;;
12118;SDS011;6123;48.864;9.200;2024-03-02T01:30:52;12.68;;;11.50;;
12118;SDS011;6123;48.864;9.200;2024-03-02T01:33:19;11.80;;;10.80;;
12118;SDS011;6123;48.864;9.200;2024-03-02T01:35:44;13.15;;;11.77;;
12118;SDS011;6123;48.864;9.200;2024-03-02T01:38:10;11.38;;;10.18;;
12118;SDS011;6123;48.864;9.200;2024-03-02T01:40:36;11.05;;;10.05;;
12118;SDS011;6123;48.864;9.200;2024-03-02T01:43:06;11.30;;;10.30;;
12118;SDS011;6123;48.864;9.200;2024-03-02T01:45:32;11.73;;;10.63;;
12118;SDS011;6123;48.864;9.200;2024-03-02T01:47:58;11.60;;;10.60;;
12118;SDS011;6123;48.864;9.200;2024-03-02T01:50:25;12.85;;;11.65;;
12118;SDS011;6123;48.864;9.200;2024-03-02T01:52:55;11.48;;;10.40;;
12118;SDS011;6123;48.864;9.200;2024-03-02T01:55:21;12.10;;;11.00;;
12118;SDS011;6123;48.864;9.200;2024-03-02T01:57:47;12.05;;;10.90;;
12118;SDS011;6123;48.864;9.200;2024-03-02T02:00:17;12.43;;;11.25;;
12118;SDS011;6123;48.864;9.200;2024-03-02T02:02:43;12.23;;;11.10;;
12118;SDS011;6123;48.864;9.200;2024-03-02T02:05:09;12.65;;;11.45;;
12118;SDS011;6123;48.864;9.200;2024-03-02T02:07:35;12.15;;;10.95;;
12118;SDS011;6123;48.864;9.200;2024-03-02T02:10:02;11.27;;;10.25;;
12118;SDS011;6123;48.864;9.200;2024-03-02T02:12:27;11.43;;;10.43;;
12118;SDS011;6123;48.864;9.200;2024-03-02T02:14:53;12.18;;;11.07;;
12118;SDS011;6123;48.864;9.200;2024-03-02T02:17:19;10.63;;;9.68;;
12118;SDS011;6123;48.864;9.200;2024-03-02T02:19:44;12.00;;;10.95;;
12118;SDS011;6123;48.864;9.200;2024-03-02T02:22:10;11.90;;;10.70;;
12118;SDS011;6123;48.864;9.200;2024-03-02T02:24:39;11.00;;;10.00;;
12118;SDS011;6123;48.864;9.200;2024-03-02T02:27:08;11.52;;;10.43;;
12118;SDS011;6123;48.864;9.200;2024-03-02T02:29:34;11.75;;;10.55;;
12118;SDS011;6123;48.864;9.200;2024-03-02T02:32:00;11.75;;;10.70;;
12118;SDS011;6123;48.864;9.200;2024-03-02T02:34:26;10.82;;;9.82;;
12118;SDS011;6123;48.864;9.200;2024-03-02T02:36:51;11.27;;;10.25;;
12118;SDS011;6123;48.864;9.200;2024-03-02T02:39:18;11.77;;;10.57;;
12118;SDS011;6123;48.864;9.200;2024-03-02T02:41:46;11.40;;;10.32;;
12118;SDS011;6123;48.864;9.200;2024-03-02T02:44:11;11.88;;;10.68;;
12118;SDS011;6123;48.864;9.200;2024-03-02T02:46:38;11.68;;;10.57;;
12118;SDS011;6123;48.864;9.200;2024-03-02T02:49:04;11.90;;;10.70;;
12118;SDS011;6123;48.864;9.200;2024-03-02T02:51:29;11.82;;;10.73;;
12118;SDS011;6123;48.864;9.200;2024-03-02T02:53:55;11.05;;;10.05;;
12118;SDS011;6123;48.864;9.200;2024-03-02T02:56:20;11.25;;;10.18;;
12118;SDS011;6123;48.864;9.200;2024-03-02T02:58:46;11.88;;;10.57;;
12118;SDS011;6123;48.864;9.200;2024-03-02T03:01:12;11.60;;;10.60;;
12118;SDS011;6123;48.864;9.200;2024-03-02T03:03:37;11.48;;;10.38;;
12118;SDS011;6123;48.864;9.200;2024-03-02T03:06:03;11.30;;;10.30;;
12118;SDS011;6123;48.864;9.200;2024-03-02T03:08:28;11.23;;;10.23;;
12118;SDS011;6123;48.864;9.200;2024-03-02T03:10:54;11.43;;;10.32;;
12118;SDS011;6123;48.864;9.200;2024-03-02T03:13:19;10.80;;;9.75;;
12118;SDS011;6123;48.864;9.200;2024-03-02T03:15:45;11.48;;;10.35;;
12118;SDS011;6123;48.864;9.200;2024-03-02T03:18:10;11.00;;;10.00;;
12118;SDS011;6123;48.864;9.200;2024-03-02T03:20:36;12.00;;;10.73;;
12118;SDS011;6123;48.864;9.200;2024-03-02T03:23:01;13.90;;;11.55;;
12118;SDS011;6123;48.864;9.200;2024-03-02T03:25:28;12.60;;;11.30;;
12118;SDS011;6123;48.864;9.200;2024-03-02T03:27:54;12.10;;;10.90;;
12118;SDS011;6123;48.864;9.200;2024-03-02T03:30:20;11.95;;;10.75;;
12118;SDS011;6123;48.864;9.200;2024-03-02T03:32:45;12.48;;;11.27;;
12118;SDS011;6123;48.864;9.200;2024-03-02T03:35:13;12.55;;;11.30;;
12118;SDS011;6123;48.864;9.200;2024-03-02T03:37:40;12.73;;;11.52;;
12118;SDS011;6123;48.864;9.200;2024-03-02T03:40:06;12.57;;;11.43;;
12118;SDS011;6123;48.864;9.200;2024-03-02T03:42:39;13.32;;;11.93;;
12118;SDS011;6123;48.864;9.200;2024-03-02T03:45:05;13.20;;;11.90;;
12118;SDS011;6123;48.864;9.200;2024-03-02T03:47:31;11.93;;;10.82;;
12118;SDS011;6123;48.864;9.200;2024-03-02T03:49:57;12.00;;;10.85;;
12118;SDS011;6123;48.864;9.200;2024-03-02T03:52:23;11.90;;;10.88;;
12118;SDS011;6123;48.864;9.200;2024-03-02T03:54:49;11.90;;;10.80;;
12118;SDS011;6123;48.864;9.200;2024-03-02T03:57:15;11.85;;;10.70;;
12118;SDS011;6123;48.864;9.200;2024-03-02T03:59:41;12.63;;;11.40;;
12118;SDS011;6123;48.864;9.200;2024-03-02T04:02:06;11.70;;;10.60;;
12118;SDS011;6123;48.864;9.200;2024-03-02T04:04:33;12.98;;;11.52;;
12118;SDS011;6123;48.864;9.200;2024-03-02T04:06:58;12.88;;;11.23;;
12118;SDS011;6123;48.864;9.200;2024-03-02T04:09:24;12.80;;;11.60;;
12118;SDS011;6123;48.864;9.200;2024-03-02T04:11:50;12.50;;;11.20;;
12118;SDS011;6123;48.864;9.200;2024-03-02T04:14:16;12.23;;;11.10;;
12118;SDS011;6123;48.864;9.200;2024-03-02T04:16:42;12.10;;;11.00;;
12118;SDS011;6123;48.864;9.200;2024-03-02T04:19:07;12.27;;;11.07;;
12118;SDS011;6123;48.864;9.200;2024-03-02T04:21:33;12.18;;;10.93;;
12118;SDS011;6123;48.864;9.200;2024-03-02T04:23:58;12.27;;;11.00;;
12118;SDS011;6123;48.864;9.200;2024-03-02T04:26:24;11.10;;;10.00;;
12118;SDS011;6123;48.864;9.200;2024-03-02T04:28:50;11.70;;;10.60;;
12118;SDS011;6123;48.864;9.200;2024-03-02T04:31:16;13.38;;;12.18;;
12118;SDS011;6123;48.864;9.200;2024-03-02T04:33:42;11.85;;;10.70;;
12118;SDS011;6123;48.864;9.200;2024-03-02T04:36:08;12.25;;;11.00;;
12118;SDS011;6123;48.864;9.200;2024-03-02T04:38:37;11.57;;;10.48;;
12118;SDS011;6123;48.864;9.200;2024-03-02T04:41:04;13.05;;;11.63;;
12118;SDS011;6123;48.864;9.200;2024-03-02T04:43:33;14.13;;;12.20;;
12118;SDS011;6123;48.864;9.200;2024-03-02T04:45:59;12.32;;;11.18;;
12118;SDS011;6123;48.864;9.200;2024-03-02T04:48:24;12.40;;;11.20;;
12118;SDS011;6123;48.864;9.200;2024-03-02T04:50:50;11.98;;;10.77;;
12118;SDS011;6123;48.864;9.200;2024-03-02T04:53:16;12.98;;;11.68;;
12118;SDS011;6123;48.864;9.200;2024-03-02T04:55:41;12.73;;;11.55;;
12118;SDS011;6123;48.864;9.200;2024-03-02T04:58:07;13.27;;;11.88;;
12118;SDS011;6123;48.864;9.200;2024-03-02T05:00:33;11.88;;;10.77;;
12118;SDS011;6123;48.864;9.200;2024-03-02T05:02:59;12.60;;;11.40;;
12118;SDS011;6123;48.864;9.200;2024-03-02T05:05:24;13.20;;;11.90;;
12118;SDS011;6123;48.864;9.200;2024-03-02T05:07:50;12.80;;;11.50;;
12118;SDS011;6123;48.864;9.200;2024-03-02T05:10:15;11.65;;;10.55;;
12118;SDS011;6123;48.864;9.200;2024-03-02T05:12:41;11.88;;;10.70;;
12118;SDS011;6123;48.864;9.200;2024-03-02T05:15:07;13.45;;;12.05;;
12118;SDS011;6123;48.864;9.200;2024-03-02T05:17:35;12.05;;;10.77;;
12118;SDS011;6123;48.864;9.200;2024-03-02T05:20:04;11.77;;;10.55;;
12118;SDS011;6123;48.864;9.200;2024-03-02T05:22:31;12.00;;;10.90;;
12118;SDS011;6123;48.864;9.200;2024-03-02T05:24:56;11.30;;;10.10;;
12118;SDS011;6123;48.864;9.200;2024-03-02T05:27:23;12.80;;;11.50;;
12118;SDS011;6123;48.864;9.200;2024-03-02T05:29:49;12.27;;;11.18;;
12118;SDS011;6123;48.864;9.200;2024-03-02T05:32:14;11.52;;;10.43;;
12118;SDS011;6123;48.864;9.200;2024-03-02T05:34:40;11.75;;;10.55;;
12118;SDS011;6123;48.864;9.200;2024-03-02T05:37:06;11.50;;;10.40;;
12118;SDS011;6123;48.864;9.200;2024-03-02T05:39:31;11.35;;;10.35;;
12118;SDS011;6123;48.864;9.200;2024-03-02T05:41:57;10.43;;;9.45;;
12118;SDS011;6123;48.864;9.200;2024-03-02T05:44:22;11.95;;;10.75;;
12118;SDS011;6123;48.864;9.200;2024-03-02T05:46:48;12.50;;;11.07;;
12118;SDS011;6123;48.864;9.200;2024-03-02T05:49:14;11.85;;;10.68;;
12118;SDS011;6123;48.864;9.200;2024-03-02T05:51:40;13.07;;;11.65;;
12118;SDS011;6123;48.864;9.200;2024-03-02T05:54:06;12.73;;;11.50;;
12118;SDS011;6123;48.864;9.200;2024-03-02T05:56:32;15.65;;;13.98;;
12118;SDS011;6123;48.864;9.200;2024-03-02T05:58:57;14.85;;;13.35;;
12118;SDS011;6123;48.864;9.200;2024-03-02T06:01:41;16.88;;;14.98;;
12118;SDS011;6123;48.864;9.200;2024-03-02T06:04:08;16.33;;;14.70;;
12118;SDS011;6123;48.864;9.200;2024-03-02T06:06:43;16.17;;;14.48;;
12118;SDS011;6123;48.864;9.200;2024-03-02T06:09:09;15.63;;;13.95;;
12118;SDS011;6123;48.864;9.200;2024-03-02T06:11:38;16.30;;;14.73;;
12118;SDS011;6123;48.864;9.200;2024-03-02T06:14:05;16.77;;;15.07;;
12118;SDS011;6123;48.864;9.200;2024-03-02T06:16:32;15.93;;;14.43;;
12118;SDS011;6123;48.864;9.200;2024-03-02T06:18:57;15.68;;;13.90;;
12118;SDS011;6123;48.864;9.200;2024-03-02T06:21:23;16.63;;;15.20;;
12118;SDS011;6123;48.864;9.200;2024-03-02T06:23:49;14.18;;;12.77;;
12118;SDS011;6123;48.864;9.200;2024-03-02T06:26:15;12.82;;;11.55;;
12118;SDS011;6123;48.864;9.200;2024-03-02T06:28:40;14.50;;;13.20;;
12118;SDS011;6123;48.864;9.200;2024-03-02T06:31:06;15.88;;;13.68;;
12118;SDS011;6123;48.864;9.200;2024-03-02T06:33:31;16.73;;;14.98;;
12118;SDS011;6123;48.864;9.200;2024-03-02T06:35:57;15.50;;;14.00;;
12118;SDS011;6123;48.864;9.200;2024-03-02T06:38:22;15.27;;;13.75;;
12118;SDS011;6123;48.864;9.200;2024-03-02T06:40:48;16.33;;;14.65;;
12118;SDS011;6123;48.864;9.200;2024-03-02T06:43:13;16.23;;;14.55;;
12118;SDS011;6123;48.864;9.200;2024-03-02T06:45:39;15.73;;;14.10;;
12118;SDS011;6123;48.864;9.200;2024-03-02T06:48:05;15.57;;;14.02;;
12118;SDS011;6123;48.864;9.200;2024-03-02T06:50:31;16.17;;;14.50;;
12118;SDS011;6123;48.864;9.200;2024-03-02T06:52:56;14.95;;;13.43;;
12118;SDS011;6123;48.864;9.200;2024-03-02T06:55:22;15.35;;;13.93;;
12118;SDS011;6123;48.864;9.200;2024-03-02T06:57:49;15.07;;;13.55;;
12118;SDS011;6123;48.864;9.200;2024-03-02T07:00:15;16.08;;;14.40;;
12118;SDS011;6123;48.864;9.200;2024-03-02T07:02:42;16.00;;;14.40;;
12118;SDS011;6123;48.864;9.200;2024-03-02T07:05:09;15.00;;;13.50;;
12118;SDS011;6123;48.864;9.200;2024-03-02T07:07:36;15.52;;;13.93;;
12118;SDS011;6123;48.864;9.200;2024-03-02T07:10:02;14.63;;;13.23;;
12118;SDS011;6123;48.864;9.200;2024-03-02T07:12:32;14.45;;;13.05;;
12118;SDS011;6123;48.864;9.200;2024-03-02T07:14:58;15.20;;;13.60;;
12118;SDS011;6123;48.864;9.200;2024-03-02T07:17:30;13.95;;;12.57;;
12118;SDS011;6123;48.864;9.200;2024-03-02T07:19:56;13.30;;;12.02;;
12118;SDS011;6123;48.864;9.200;2024-03-02T07:22:21;13.98;;;12.68;;
12118;SDS011;6123;48.864;9.200;2024-03-02T07:24:48;14.57;;;13.23;;
12118;SDS011;6123;48.864;9.200;2024-03-02T07:27:14;13.25;;;11.95;;
12118;SDS011;6123;48.864;9.200;2024-03-02T07:29:40;13.73;;;12.43;;
12118;SDS011;6123;48.864;9.200;2024-03-02T07:32:06;13.90;;;12.60;;
12118;SDS011;6123;48.864;9.200;2024-03-02T07:34:33;14.38;;;12.98;;
12118;SDS011;6123;48.864;9.200;2024-03-02T07:36:58;13.10;;;11.80;;
12118;SDS011;6123;48.864;9.200;2024-03-02T07:39:24;13.55;;;12.25;;
12118;SDS011;6123;48.864;9.200;2024-03-02T07:41:50;11.95;;;10.95;;
12118;SDS011;6123;48.864;9.200;2024-03-02T07:44:16;11.82;;;10.75;;
12118;SDS011;6123;48.864;9.200;2024-03-02T07:46:44;11.50;;;10.30;;
12118;SDS011;6123;48.864;9.200;2024-03-02T07:49:11;11.63;;;10.52;;
12118;SDS011;6123;48.864;9.200;2024-03-02T07:51:40;12.13;;;11.02;;
12118;SDS011;6123;48.864;9.200;2024-03-02T07:54:06;11.52;;;10.43;;
12118;SDS011;6123;48.864;9.200;2024-03-02T07:56:32;11.50;;;10.40;;
12118;SDS011;6123;48.864;9.200;2024-03-02T07:58:57;10.15;;;9.15;;
12118;SDS011;6123;48.864;9.200;2024-03-02T08:01:28;11.73;;;10.73;;
12118;SDS011;6123;48.864;9.200;2024-03-02T08:03:55;10.02;;;9.02;;
12118;SDS011;6123;48.864;9.200;2024-03-02T08:06:24;10.40;;;9.32;;
12118;SDS011;6123;48.864;9.200;2024-03-02T08:08:53;10.25;;;9.35;;
12118;SDS011;6123;48.864;9.200;2024-03-02T08:11:26;9.88;;;9.07;;
12118;SDS011;6123;48.864;9.200;2024-03-02T08:13:56;10.25;;;9.30;;
12118;SDS011;6123;48.864;9.200;2024-03-02T08:16:22;9.75;;;8.85;;
12118;SDS011;6123;48.864;9.200;2024-03-02T08:18:48;9.25;;;8.40;;
12118;SDS011;6123;48.864;9.200;2024-03-02T08:21:14;9.73;;;8.85;;
12118;SDS011;6123;48.864;9.200;2024-03-02T08:23:40;9.70;;;8.80;;
12118;SDS011;6123;48.864;9.200;2024-03-02T08:26:07;8.88;;;8.07;;
12118;SDS011;6123;48.864;9.200;2024-03-02T08:28:33;8.63;;;7.88;;
12118;SDS011;6123;48.864;9.200;2024-03-02T08:30:59;9.13;;;8.32;;
12118;SDS011;6123;48.864;9.200;2024-03-02T08:33:24;9.23;;;8.43;;
12118;SDS011;6123;48.864;9.200;2024-03-02T08:35:50;9.32;;;8.40;;
12118;SDS011;6123;48.864;9.200;2024-03-02T08:38:15;8.07;;;7.38;;
12118;SDS011;6123;48.864;9.200;2024-03-02T08:40:41;8.02;;;7.32;;
12118;SDS011;6123;48.864;9.200;2024-03-02T08:43:07;7.25;;;6.55;;
12118;SDS011;6123;48.864;9.200;2024-03-02T08:45:32;8.13;;;7.43;;
12118;SDS011;6123;48.864;9.200;2024-03-02T08:47:59;7.28;;;6.68;;
12118;SDS011;6123;48.864;9.200;2024-03-02T08:50:25;7.55;;;6.95;;
12118;SDS011;6123;48.864;9.200;2024-03-02T08:52:50;6.72;;;6.22;;
12118;SDS011;6123;48.864;9.200;2024-03-02T08:55:16;6.50;;;5.90;;
12118;SDS011;6123;48.864;9.200;2024-03-02T08:57:41;6.25;;;5.75;;
12118;SDS011;6123;48.864;9.200;2024-03-02T09:00:07;6.00;;;5.50;;
12118;SDS011;6123;48.864;9.200;2024-03-02T09:02:33;6.38;;;5.78;;
12118;SDS011;6123;48.864;9.200;2024-03-02T09:04:59;5.90;;;5.40;;
12118;SDS011;6123;48.864;9.200;2024-03-02T09:07:25;5.32;;;4.93;;
12118;SDS011;6123;48.864;9.200;2024-03-02T09:09:50;5.00;;;4.60;;
12118;SDS011;6123;48.864;9.200;2024-03-02T09:12:17;4.82;;;4.43;;
12118;SDS011;6123;48.864;9.200;2024-03-02T09:14:43;3.97;;;3.67;;
12118;SDS011;6123;48.864;9.200;2024-03-02T09:17:08;4.63;;;4.22;;
12118;SDS011;6123;48.864;9.200;2024-03-02T09:19:35;4.75;;;4.35;;
12118;SDS011;6123;48.864;9.200;2024-03-02T09:22:01;4.63;;;4.22;;
12118;SDS011;6123;48.864;9.200;2024-03-02T09:24:28;4.70;;;4.30;;
12118;SDS011;6123;48.864;9.200;2024-03-02T09:26:53;5.18;;;4.78;;
12118;SDS011;6123;48.864;9.200;2024-03-02T09:29:19;5.30;;;4.88;;
12118;SDS011;6123;48.864;9.200;2024-03-02T09:31:45;4.90;;;4.50;;
12118;SDS011;6123;48.864;9.200;2024-03-02T09:34:11;5.93;;;4.53;;
12118;SDS011;6123;48.864;9.200;2024-03-02T09:36:39;6.88;;;4.78;;
12118;SDS011;6123;48.864;9.200;2024-03-02T09:39:04;5.55;;;5.05;;
12118;SDS011;6123;48.864;9.200;2024-03-02T09:41:33;4.97;;;4.57;;
12118;SDS011;6123;48.864;9.200;2024-03-02T09:43:58;5.07;;;4.68;;
12118;SDS011;6123;48.864;9.200;2024-03-02T09:46:24;5.28;;;4.78;;
12118;SDS011;6123;48.864;9.200;2024-03-02T09:48:50;4.75;;;4.35;;
12118;SDS011;6123;48.864;9.200;2024-03-02T09:51:16;5.13;;;4.63;;
12118;SDS011;6123;48.864;9.200;2024-03-02T09:53:44;4.95;;;4.55;;
12118;SDS011;6123;48.864;9.200;2024-03-02T09:56:11;4.95;;;4.45;;
12118;SDS011;6123;48.864;9.200;2024-03-02T09:58:36;5.20;;;4.80;;
12118;SDS011;6123;48.864;9.200;2024-03-02T10:01:05;5.07;;;4.68;;
12118;SDS011;6123;48.864;9.200;2024-03-02T10:03:31;4.78;;;4.38;;
12118;SDS011;6123;48.864;9.200;2024-03-02T10:08:43;4.93;;;4.40;;
12118;SDS011;6123;48.864;9.200;2024-03-02T10:11:09;4.60;;;4.20;;
12118;SDS011;6123;48.864;9.200;2024-03-02T10:13:35;5.15;;;4.20;;
12118;SDS011;6123;48.864;9.200;2024-03-02T10:16:10;4.20;;;3.90;;
12118;SDS011;6123;48.864;9.200;2024-03-02T10:18:37;3.50;;;3.30;;
12118;SDS011;6123;48.864;9.200;2024-03-02T10:21:15;4.00;;;3.70;;
12118;SDS011;6123;48.864;9.200;2024-03-02T10:23:40;3.80;;;3.50;;
12118;SDS011;6123;48.864;9.200;2024-03-02T10:26:18;4.13;;;3.83;;
12118;SDS011;6123;48.864;9.200;2024-03-02T10:28:47;3.67;;;3.38;;
12118;SDS011;6123;48.864;9.200;2024-03-02T10:31:13;3.50;;;3.22;;
12118;SDS011;6123;48.864;9.200;2024-03-02T10:33:39;3.17;;;2.97;;
12118;SDS011;6123;48.864;9.200;2024-03-02T10:36:05;3.33;;;3.10;;
12118;SDS011;6123;48.864;9.200;2024-03-02T10:38:31;3.00;;;2.80;;
12118;SDS011;6123;48.864;9.200;2024-03-02T10:40:57;3.33;;;3.10;;
12118;SDS011;6123;48.864;9.200;2024-03-02T10:43:24;3.38;;;2.95;;
12118;SDS011;6123;48.864;9.200;2024-03-02T10:45:51;3.72;;;2.97;;
12118;SDS011;6123;48.864;9.200;2024-03-02T10:48:17;3.22;;;2.92;;
12118;SDS011;6123;48.864;9.200;2024-03-02T10:50:43;2.78;;;2.58;;
12118;SDS011;6123;48.864;9.200;2024-03-02T10:53:09;2.88;;;2.60;;
12118;SDS011;6123;48.864;9.200;2024-03-02T10:55:35;2.63;;;2.42;;
12118;SDS011;6123;48.864;9.200;2024-03-02T10:58:01;2.80;;;2.60;;
12118;SDS011;6123;48.864;9.200;2024-03-02T11:00:32;2.90;;;2.70;;
12118;SDS011;6123;48.864;9.200;2024-03-02T11:03:04;3.63;;;2.58;;
12118;SDS011;6123;48.864;9.200;2024-03-02T11:05:32;2.17;;;2.08;;
12118;SDS011;6123;48.864;9.200;2024-03-02T11:08:01;2.55;;;2.35;;
12118;SDS011;6123;48.864;9.200;2024-03-02T11:10:39;2.25;;;2.08;;
12118;SDS011;6123;48.864;9.200;2024-03-02T11:13:11;2.55;;;2.35;;
12118;SDS011;6123;48.864;9.200;2024-03-02T11:15:37;2.13;;;1.90;;
12118;SDS011;6123;48.864;9.200;2024-03-02T11:18:05;2.40;;;2.30;;
12118;SDS011;6123;48.864;9.200;2024-03-02T11:20:34;3.13;;;2.38;;
12118;SDS011;6123;48.864;9.200;2024-03-02T11:23:07;2.35;;;2.15;;
12118;SDS011;6123;48.864;9.200;2024-03-02T11:25:35;2.08;;;1.98;;
12118;SDS011;6123;48.864;9.200;2024-03-02T11:28:04;2.50;;;2.30;;
12118;SDS011;6123;48.864;9.200;2024-03-02T11:32:59;2.33;;;2.13;;
12118;SDS011;6123;48.864;9.200;2024-03-02T11:35:26;2.20;;;2.10;;
12118;SDS011;6123;48.864;9.200;2024-03-02T11:37:53;2.25;;;2.15;;
12118;SDS011;6123;48.864;9.200;2024-03-02T11:40:23;2.10;;;2.00;;
12118;SDS011;6123;48.864;9.200;2024-03-02T11:42:49;1.92;;;1.83;;
12118;SDS011;6123;48.864;9.200;2024-03-02T11:45:33;2.25;;;1.90;;
12118;SDS011;6123;48.864;9.200;2024-03-02T11:48:00;2.22;;;2.13;;
12118;SDS011;6123;48.864;9.200;2024-03-02T11:52:57;2.05;;;1.95;;
12118;SDS011;6123;48.864;9.200;2024-03-02T11:55:24;2.22;;;2.13;;
12118;SDS011;6123;48.864;9.200;2024-03-02T11:57:52;1.85;;;1.75;;
12118;SDS011;6123;48.864;9.200;2024-03-02T12:00:18;2.25;;;2.08;;
12118;SDS011;6123;48.864;9.200;2024-03-02T12:02:45;2.58;;;2.22;;
12118;SDS011;6123;48.864;9.200;2024-03-02T12:05:14;1.90;;;1.80;;
12118;SDS011;6123;48.864;9.200;2024-03-02T12:07:41;2.10;;;2.00;;
12118;SDS011;6123;48.864;9.200;2024-03-02T12:10:08;2.88;;;2.10;;
12118;SDS011;6123;48.864;9.200;2024-03-02T12:12:33;2.20;;;2.00;;
12118;SDS011;6123;48.864;9.200;2024-03-02T12:14:59;1.90;;;1.80;;
12118;SDS011;6123;48.864;9.200;2024-03-02T12:17:26;1.90;;;1.80;;
12118;SDS011;6123;48.864;9.200;2024-03-02T12:19:51;1.98;;;1.88;;
12118;SDS011;6123;48.864;9.200;2024-03-02T12:22:17;2.35;;;2.15;;
12118;SDS011;6123;48.864;9.200;2024-03-02T12:24:43;1.83;;;1.73;;
12118;SDS011;6123;48.864;9.200;2024-03-02T12:27:13;1.60;;;1.50;;
12118;SDS011;6123;48.864;9.200;2024-03-02T12:29:40;1.75;;;1.65;;
12118;SDS011;6123;48.864;9.200;2024-03-02T12:32:06;2.00;;;1.35;;
12118;SDS011;6123;48.864;9.200;2024-03-02T12:34:32;1.55;;;1.33;;
12118;SDS011;6123;48.864;9.200;2024-03-02T12:36:57;1.55;;;1.45;;
12118;SDS011;6123;48.864;9.200;2024-03-02T12:39:23;1.92;;;1.30;;
12118;SDS011;6123;48.864;9.200;2024-03-02T12:41:49;3.60;;;3.08;;
12118;SDS011;6123;48.864;9.200;2024-03-02T12:44:16;2.55;;;2.13;;
12118;SDS011;6123;48.864;9.200;2024-03-02T12:46:45;1.55;;;1.42;;
12118;SDS011;6123;48.864;9.200;2024-03-02T12:49:12;2.97;;;1.75;;
12118;SDS011;6123;48.864;9.200;2024-03-02T12:51:39;1.85;;;1.60;;
12118;SDS011;6123;48.864;9.200;2024-03-02T12:54:06;1.50;;;1.38;;
12118;SDS011;6123;48.864;9.200;2024-03-02T12:56:36;1.17;;;1.08;;
12118;SDS011;6123;48.864;9.200;2024-03-02T12:59:06;1.00;;;1.00;;
12118;SDS011;6123;48.864;9.200;2024-03-02T13:01:31;1.30;;;1.13;;
12118;SDS011;6123;48.864;9.200;2024-03-02T13:03:57;1.38;;;1.27;;
12118;SDS011;6123;48.864;9.200;2024-03-02T13:06:24;2.15;;;1.20;;
12118;SDS011;6123;48.864;9.200;2024-03-02T13:08:53;0.88;;;0.88;;
12118;SDS011;6123;48.864;9.200;2024-03-02T13:11:19;1.30;;;1.05;;
12118;SDS011;6123;48.864;9.200;2024-03-02T13:13:45;1.00;;;1.00;;
12118;SDS011;6123;48.864;9.200;2024-03-02T13:16:12;0.95;;;0.70;;
12118;SDS011;6123;48.864;9.200;2024-03-02T13:18:39;0.65;;;0.65;;
12118;SDS011;6123;48.864;9.200;2024-03-02T13:21:08;0.93;;;0.75;;
12118;SDS011;6123;48.864;9.200;2024-03-02T13:23:34;0.82;;;0.73;;
12118;SDS011;6123;48.864;9.200;2024-03-02T13:25:59;0.70;;;0.70;;
12118;SDS011;6123;48.864;9.200;2024-03-02T13:28:26;0.70;;;0.70;;
12118;SDS011;6123;48.864;9.200;2024-03-02T13:30:51;0.50;;;0.50;;
12118;SDS011;6123;48.864;9.200;2024-03-02T13:33:17;0.65;;;0.65;;
12118;SDS011;6123;48.864;9.200;2024-03-02T13:35:50;0.75;;;0.75;;
12118;SDS011;6123;48.864;9.200;2024-03-02T13:38:19;1.23;;;0.68;;
12118;SDS011;6123;48.864;9.200;2024-03-02T13:40:45;0.57;;;0.57;;
12118;SDS011;6123;48.864;9.200;2024-03-02T13:43:12;2.13;;;0.68;;
12118;SDS011;6123;48.864;9.200;2024-03-02T13:45:38;1.45;;;0.70;;
12118;SDS011;6123;48.864;9.200;2024-03-02T13:48:04;0.60;;;0.60;;
12118;SDS011;6123;48.864;9.200;2024-03-02T13:50:30;0.65;;;0.65;;
12118;SDS011;6123;48.864;9.200;2024-03-02T13:52:56;1.40;;;1.30;;
12118;SDS011;6123;48.864;9.200;2024-03-02T13:55:21;1.00;;;1.00;;
12118;SDS011;6123;48.864;9.200;2024-03-02T13:57:47;1.05;;;1.00;;
12118;SDS011;6123;48.864;9.200;2024-03-02T14:00:15;1.00;;;1.00;;
12118;SDS011;6123;48.864;9.200;2024-03-02T14:02:43;0.90;;;0.90;;
12118;SDS011;6123;48.864;9.200;2024-03-02T14:05:10;0.80;;;0.80;;
12118;SDS011;6123;48.864;9.200;2024-03-02T14:07:40;1.55;;;0.85;;
12118;SDS011;6123;48.864;9.200;2024-03-02T14:10:07;0.85;;;0.85;;
12118;SDS011;6123;48.864;9.200;2024-03-02T14:12:33;0.80;;;0.80;;
12118;SDS011;6123;48.864;9.200;2024-03-02T14:14:58;2.58;;;0.65;;
12118;SDS011;6123;48.864;9.200;2024-03-02T14:17:27;0.60;;;0.60;;
12118;SDS011;6123;48.864;9.200;2024-03-02T14:19:52;1.23;;;1.00;;
12118;SDS011;6123;48.864;9.200;2024-03-02T14:22:18;1.55;;;1.48;;
12118;SDS011;6123;48.864;9.200;2024-03-02T14:24:44;1.40;;;1.30;;
12118;SDS011;6123;48.864;9.200;2024-03-02T14:27:11;1.27;;;1.17;;
12118;SDS011;6123;48.864;9.200;2024-03-02T14:29:36;0.68;;;0.68;;
12118;SDS011;6123;48.864;9.200;2024-03-02T14:32:05;0.93;;;0.93;;
12118;SDS011;6123;48.864;9.200;2024-03-02T14:34:31;1.00;;;0.90;;
12118;SDS011;6123;48.864;9.200;2024-03-02T14:36:56;0.90;;;0.90;;
12118;SDS011;6123;48.864;9.200;2024-03-02T14:39:22;1.38;;;1.27;;
12118;SDS011;6123;48.864;9.200;2024-03-02T14:41:48;1.00;;;1.00;;
12118;SDS011;6123;48.864;9.200;2024-03-02T14:44:13;1.25;;;1.15;;
12118;SDS011;6123;48.864;9.200;2024-03-02T14:46:40;1.30;;;1.20;;
12118;SDS011;6123;48.864;9.200;2024-03-02T14:49:06;1.33;;;1.23;;
12118;SDS011;6123;48.864;9.200;2024-03-02T14:51:32;1.58;;;1.17;;